createdAt,value
2023-04-30T00:01:42.494Z,19.43
2023-04-30T00:04:10.114Z,21.30
2023-04-30T00:06:37.723Z,19.77
2023-04-30T00:09:06.793Z,20.83
2023-04-30T00:11:34.248Z,20.00
2023-04-30T00:14:01.662Z,20.57
2023-04-30T00:16:29.181Z,20.33
2023-04-30T00:18:56.686Z,20.07
2023-04-30T00:21:24.206Z,21.20
2023-04-30T00:23:51.585Z,20.27
2023-04-30T00:26:20.627Z,19.40
2023-04-30T00:28:48.021Z,19.00
2023-04-30T00:31:15.462Z,19.60
2023-04-30T00:33:42.957Z,19.73
2023-04-30T00:36:10.498Z,19.17
2023-04-30T00:38:37.869Z,19.40
2023-04-30T00:41:05.621Z,18.73
2023-04-30T00:43:35.261Z,18.80
2023-04-30T00:46:03.905Z,17.80
2023-04-30T00:48:31.418Z,16.87
2023-04-30T00:50:58.974Z,17.20
2023-04-30T00:53:27.141Z,17.57
2023-04-30T00:55:55.048Z,16.90
2023-04-30T00:58:22.531Z,17.93
2023-04-30T01:00:51.912Z,17.33
2023-04-30T01:03:19.598Z,16.83
2023-04-30T01:05:47.074Z,17.30
2023-04-30T01:08:14.625Z,17.07
2023-04-30T01:10:43.267Z,17.27
2023-04-30T01:13:13.848Z,17.17
2023-04-30T01:15:43.888Z,16.53
2023-04-30T01:18:14.793Z,17.20
2023-04-30T01:20:45.489Z,16.77
2023-04-30T01:23:25.026Z,16.23
2023-04-30T01:26:06.345Z,16.73
2023-04-30T01:28:35.838Z,15.80
2023-04-30T01:31:03.318Z,15.17
2023-04-30T01:33:30.842Z,16.67
2023-04-30T01:36:17.025Z,17.47
2023-04-30T01:38:50.171Z,17.10
2023-04-30T01:41:21.341Z,16.57
2023-04-30T01:43:56.521Z,16.77
2023-04-30T01:46:27.288Z,16.63
2023-04-30T01:48:56.557Z,15.83
2023-04-30T01:51:29.619Z,16.90
2023-04-30T01:53:59.228Z,16.23
2023-04-30T01:56:28.815Z,16.10
2023-04-30T01:58:57.834Z,14.83
2023-04-30T02:01:28.821Z,15.17
2023-04-30T02:03:56.387Z,14.77
2023-04-30T02:08:54.149Z,14.93
2023-04-30T02:11:21.553Z,14.17
2023-04-30T02:13:49.047Z,14.43
2023-04-30T02:16:17.901Z,13.43
2023-04-30T02:18:45.697Z,13.87
2023-04-30T02:21:13.315Z,14.17
2023-04-30T02:23:40.713Z,14.10
2023-04-30T02:26:08.205Z,15.27
2023-04-30T02:28:36.049Z,14.57
2023-04-30T02:31:03.506Z,15.20
2023-04-30T02:33:32.533Z,16.33
2023-04-30T02:36:00.913Z,17.03
2023-04-30T02:38:28.406Z,16.33
2023-04-30T02:40:55.949Z,16.40
2023-04-30T02:43:23.430Z,16.00
2023-04-30T02:45:51.320Z,15.70
2023-04-30T02:48:18.794Z,14.63
2023-04-30T02:50:47.572Z,15.57
2023-04-30T02:53:15.004Z,14.27
2023-04-30T02:55:42.483Z,14.20
2023-04-30T02:58:09.947Z,14.07
2023-04-30T03:00:37.361Z,14.30
2023-04-30T03:03:04.900Z,14.60
2023-04-30T03:05:32.497Z,14.07
2023-04-30T03:08:01.610Z,13.80
2023-04-30T03:10:28.991Z,14.07
2023-04-30T03:12:56.477Z,13.60
2023-04-30T03:15:24.017Z,13.80
2023-04-30T03:17:51.846Z,12.67
2023-04-30T03:20:19.461Z,13.27
2023-04-30T03:22:46.891Z,14.73
2023-04-30T03:25:15.677Z,14.43
2023-04-30T03:27:43.190Z,15.37
2023-04-30T03:30:10.968Z,15.70
2023-04-30T03:32:38.797Z,15.17
2023-04-30T03:35:06.778Z,15.50
2023-04-30T03:37:34.230Z,15.83
2023-04-30T03:40:01.699Z,15.80
2023-04-30T03:42:30.468Z,15.07
2023-04-30T03:44:57.832Z,15.60
2023-04-30T03:47:25.368Z,14.40
2023-04-30T03:49:55.554Z,14.40
2023-04-30T03:52:23.513Z,15.00
2023-04-30T03:54:51.022Z,14.97
2023-04-30T03:57:18.481Z,14.27
2023-04-30T03:59:47.471Z,14.50
2023-04-30T04:02:15.010Z,15.30
2023-04-30T04:04:42.543Z,14.90
2023-04-30T04:07:11.532Z,14.10
2023-04-30T04:09:39.002Z,14.40
2023-04-30T04:12:06.742Z,13.23
2023-04-30T04:14:34.395Z,13.57
2023-04-30T04:17:05.519Z,12.43
2023-04-30T04:19:33.012Z,12.47
2023-04-30T04:22:00.806Z,12.30
2023-04-30T04:24:28.344Z,11.57
2023-04-30T04:26:56.031Z,11.40
2023-04-30T04:29:23.491Z,11.60
2023-04-30T04:31:51.201Z,11.17
2023-04-30T04:34:20.979Z,10.50
2023-04-30T04:36:48.610Z,10.57
2023-04-30T04:39:16.095Z,10.07
2023-04-30T04:41:43.540Z,10.70
2023-04-30T04:44:10.956Z,9.90
2023-04-30T04:46:39.822Z,10.63
2023-04-30T04:49:07.826Z,10.33
2023-04-30T04:51:36.967Z,10.10
2023-04-30T04:54:04.561Z,10.37
2023-04-30T04:56:31.983Z,10.00
2023-04-30T04:58:59.539Z,10.33
2023-04-30T05:01:27.114Z,9.90
2023-04-30T05:03:54.915Z,9.50
2023-04-30T05:06:22.893Z,9.80
2023-04-30T05:08:51.731Z,10.10
2023-04-30T05:11:19.183Z,10.07
2023-04-30T05:13:47.370Z,9.77
2023-04-30T05:16:14.855Z,9.60
2023-04-30T05:18:42.382Z,10.13
2023-04-30T05:21:10.580Z,10.80
2023-04-30T05:23:38.327Z,10.13
2023-04-30T05:26:07.274Z,9.90
2023-04-30T05:28:35.604Z,10.30
2023-04-30T05:31:03.024Z,10.63
2023-04-30T05:33:30.458Z,10.30
2023-04-30T05:35:58.040Z,10.60
2023-04-30T05:38:25.681Z,10.50
2023-04-30T05:40:53.097Z,9.67
2023-04-30T05:43:21.828Z,10.70
2023-04-30T05:45:49.682Z,10.67
2023-04-30T05:48:17.156Z,11.13
2023-04-30T05:50:44.682Z,9.80
2023-04-30T05:53:12.141Z,10.20
2023-04-30T05:55:39.732Z,10.10
2023-04-30T05:58:07.359Z,10.93
2023-04-30T06:00:36.314Z,11.17
2023-04-30T06:03:03.790Z,11.60
2023-04-30T06:05:31.255Z,11.20
2023-04-30T06:07:58.797Z,12.07
2023-04-30T06:10:26.794Z,12.20
2023-04-30T06:12:54.231Z,11.70
2023-04-30T06:15:21.656Z,11.10
2023-04-30T06:17:50.485Z,12.50
2023-04-30T06:20:18.051Z,11.77
2023-04-30T06:22:45.427Z,11.37
2023-04-30T06:25:12.816Z,11.93
2023-04-30T06:27:40.300Z,11.50
2023-04-30T06:30:08.316Z,12.70
2023-04-30T06:32:35.892Z,13.83
2023-04-30T06:35:04.918Z,13.13
2023-04-30T06:37:35.938Z,12.03
2023-04-30T06:40:03.716Z,10.80
2023-04-30T06:42:34.362Z,11.77
2023-04-30T06:45:02.286Z,10.60
2023-04-30T06:47:29.915Z,10.90
2023-04-30T06:49:57.469Z,11.17
2023-04-30T06:52:26.334Z,10.97
2023-04-30T06:54:53.690Z,11.43
2023-04-30T06:57:21.087Z,10.97
2023-04-30T06:59:48.704Z,11.00
2023-04-30T07:02:16.209Z,10.93
2023-04-30T07:04:43.695Z,10.40
2023-04-30T07:07:11.546Z,10.10
2023-04-30T07:09:40.659Z,10.30
2023-04-30T07:12:08.095Z,9.40
2023-04-30T07:14:35.617Z,10.90
2023-04-30T07:17:03.134Z,10.30
2023-04-30T07:19:30.594Z,10.37
2023-04-30T07:21:58.505Z,10.53
2023-04-30T07:24:26.027Z,11.10
2023-04-30T07:26:54.803Z,10.37
2023-04-30T07:29:22.242Z,9.87
2023-04-30T07:31:49.797Z,9.13
2023-04-30T07:34:17.205Z,9.37
2023-04-30T07:36:44.592Z,7.73
2023-04-30T07:39:12.436Z,8.37
2023-04-30T07:41:39.960Z,8.90
2023-04-30T07:44:08.973Z,7.33
2023-04-30T07:46:36.659Z,8.30
2023-04-30T07:49:04.548Z,8.30
2023-04-30T07:51:32.836Z,8.33
2023-04-30T07:54:00.308Z,8.50
2023-04-30T07:56:27.731Z,8.00
2023-04-30T07:58:55.756Z,7.63
2023-04-30T08:01:24.537Z,8.40
2023-04-30T08:03:51.971Z,7.50
2023-04-30T08:06:20.042Z,7.80
2023-04-30T08:08:48.831Z,7.20
2023-04-30T08:11:16.852Z,6.73
2023-04-30T08:13:44.249Z,6.30
2023-04-30T08:16:11.646Z,5.80
2023-04-30T08:18:44.336Z,6.10
2023-04-30T08:21:11.949Z,4.40
2023-04-30T08:23:39.492Z,4.93
2023-04-30T08:26:07.087Z,4.53
2023-04-30T08:28:34.475Z,4.13
2023-04-30T08:31:01.967Z,4.37
2023-04-30T08:33:29.485Z,3.90
2023-04-30T08:35:59.746Z,3.63
2023-04-30T08:38:28.366Z,3.70
2023-04-30T08:40:59.998Z,3.10
2023-04-30T08:43:27.807Z,3.80
2023-04-30T08:45:55.679Z,4.00
2023-04-30T08:48:24.720Z,3.77
2023-04-30T08:50:52.243Z,3.90
2023-04-30T08:53:22.173Z,3.30
2023-04-30T08:55:49.677Z,2.30
2023-04-30T08:58:17.161Z,2.70
2023-04-30T09:00:44.579Z,2.97
2023-04-30T09:03:12.070Z,1.63
2023-04-30T09:05:39.501Z,2.10
2023-04-30T09:08:07.855Z,2.70
2023-04-30T09:10:36.793Z,2.50
2023-04-30T09:13:05.409Z,2.80
2023-04-30T09:15:33.392Z,2.60
2023-04-30T09:18:07.804Z,1.93
2023-04-30T09:20:35.491Z,2.27
2023-04-30T09:23:06.792Z,2.20
2023-04-30T09:25:41.144Z,2.23
2023-04-30T09:28:11.637Z,1.90
2023-04-30T09:30:39.375Z,2.00
2023-04-30T09:33:08.683Z,1.80
2023-04-30T09:35:39.797Z,1.43
2023-04-30T09:38:07.315Z,1.37
2023-04-30T09:40:38.360Z,1.57
2023-04-30T09:43:07.851Z,1.60
2023-04-30T09:45:42.324Z,1.50
2023-04-30T09:48:17.176Z,1.40
2023-04-30T09:50:47.246Z,1.57
2023-04-30T09:53:15.213Z,1.10
2023-04-30T09:55:44.211Z,0.80
2023-04-30T09:58:15.024Z,0.70
2023-04-30T10:00:43.079Z,0.90
2023-04-30T10:03:11.855Z,0.80
2023-04-30T10:05:42.847Z,0.93
2023-04-30T10:08:11.589Z,0.90
2023-04-30T10:10:39.470Z,1.00
2023-04-30T10:13:10.784Z,0.90
2023-04-30T10:15:41.281Z,1.00
2023-04-30T10:18:12.577Z,1.07
2023-04-30T10:20:41.023Z,0.80
2023-04-30T10:23:08.612Z,1.13
2023-04-30T10:25:36.465Z,0.90
2023-04-30T10:28:05.010Z,1.00
2023-04-30T10:30:32.887Z,1.00
2023-04-30T10:33:05.628Z,0.90
2023-04-30T10:35:36.228Z,1.10
2023-04-30T10:38:08.929Z,1.00
2023-04-30T10:40:36.996Z,0.90
2023-04-30T10:43:04.470Z,0.70
2023-04-30T10:45:38.727Z,0.90
2023-04-30T10:48:08.038Z,0.70
2023-04-30T10:50:43.007Z,0.80
2023-04-30T10:53:13.756Z,0.93
2023-04-30T10:55:47.132Z,0.90
2023-04-30T10:58:24.454Z,1.00
2023-04-30T11:00:52.551Z,1.00
2023-04-30T11:03:23.136Z,0.97
2023-04-30T11:05:50.736Z,0.73
2023-04-30T11:08:21.115Z,0.80
2023-04-30T11:10:58.702Z,0.90
2023-04-30T11:13:27.553Z,0.77
2023-04-30T11:15:55.327Z,0.70
2023-04-30T11:18:28.147Z,0.97
2023-04-30T11:20:58.180Z,0.70
2023-04-30T11:23:38.371Z,0.80
2023-04-30T11:26:08.206Z,0.70
2023-04-30T11:28:36.032Z,0.80
2023-04-30T11:31:03.990Z,0.70
2023-04-30T11:33:33.731Z,0.90
2023-04-30T11:36:01.652Z,0.70
2023-04-30T11:38:29.763Z,0.70
2023-04-30T11:40:57.639Z,0.87
2023-04-30T11:43:26.100Z,0.80
2023-04-30T11:46:05.661Z,0.60
2023-04-30T11:48:34.879Z,0.73
2023-04-30T11:51:06.537Z,0.90
2023-04-30T11:53:33.990Z,0.70
2023-04-30T11:56:05.150Z,0.70
2023-04-30T11:58:37.921Z,0.73
2023-04-30T12:01:06.001Z,0.80
2023-04-30T12:03:34.970Z,0.80
2023-04-30T12:06:02.785Z,0.83
2023-04-30T12:08:30.271Z,0.90
2023-04-30T12:10:57.663Z,0.90
2023-04-30T12:13:25.028Z,0.70
2023-04-30T12:15:59.335Z,0.80
2023-04-30T12:18:26.909Z,0.83
2023-04-30T12:20:55.767Z,0.70
2023-04-30T12:23:23.313Z,0.90
2023-04-30T12:25:51.309Z,0.80
2023-04-30T12:28:18.668Z,0.73
2023-04-30T12:30:46.222Z,0.70
2023-04-30T12:33:13.723Z,0.90
2023-04-30T12:35:43.448Z,1.03
2023-04-30T12:38:12.369Z,0.80
2023-04-30T12:40:40.745Z,0.80
2023-04-30T12:43:09.500Z,0.80
2023-04-30T12:45:44.128Z,0.80
2023-04-30T12:48:11.931Z,0.80
2023-04-30T12:50:39.587Z,0.80
2023-04-30T12:53:07.484Z,0.90
2023-04-30T12:55:37.823Z,0.90
2023-04-30T12:58:06.329Z,0.80
2023-04-30T13:00:46.913Z,0.90
2023-04-30T13:03:14.831Z,0.80
2023-04-30T13:05:42.551Z,0.90
2023-04-30T13:08:10.065Z,1.00
2023-04-30T13:10:38.909Z,0.70
2023-04-30T13:13:06.318Z,0.80
2023-04-30T13:15:33.897Z,0.90
2023-04-30T13:18:01.432Z,1.00
2023-04-30T13:20:28.878Z,0.97
2023-04-30T13:22:56.419Z,0.77
2023-04-30T13:25:24.294Z,0.80
2023-04-30T13:27:53.074Z,0.70
2023-04-30T13:30:20.552Z,0.90
2023-04-30T13:32:48.039Z,0.80
2023-04-30T13:35:15.474Z,0.93
2023-04-30T13:37:43.266Z,0.87
2023-04-30T13:40:10.977Z,0.90
2023-04-30T13:42:39.106Z,1.00
2023-04-30T13:45:08.879Z,0.93
2023-04-30T13:47:36.440Z,0.80
2023-04-30T13:50:04.477Z,0.70
2023-04-30T13:52:31.978Z,0.70
2023-04-30T13:54:59.459Z,0.90
2023-04-30T13:57:28.530Z,0.70
2023-04-30T13:59:56.204Z,0.80
2023-04-30T14:02:25.473Z,0.70
2023-04-30T14:05:05.068Z,0.80
2023-04-30T14:07:33.711Z,0.70
2023-04-30T14:10:01.362Z,0.80
2023-04-30T14:12:30.463Z,0.80
2023-04-30T14:14:58.360Z,0.90
2023-04-30T14:17:28.237Z,0.90
2023-04-30T14:19:55.884Z,0.90
2023-04-30T14:22:24.447Z,0.97
2023-04-30T14:24:53.123Z,0.80
2023-04-30T14:27:21.171Z,0.83
2023-04-30T14:29:48.581Z,0.70
2023-04-30T14:32:16.115Z,0.77
2023-04-30T14:34:44.928Z,0.80
2023-04-30T14:37:12.404Z,0.80
2023-04-30T14:39:39.910Z,0.70
2023-04-30T14:42:07.353Z,0.80
2023-04-30T14:44:34.734Z,0.80
2023-04-30T14:47:02.351Z,0.93
2023-04-30T14:49:29.767Z,1.23
2023-04-30T14:51:58.636Z,1.60
2023-04-30T14:54:26.065Z,0.80
2023-04-30T14:56:53.545Z,0.80
2023-04-30T14:59:21.530Z,0.87
2023-04-30T15:01:49.104Z,0.90
2023-04-30T15:04:16.692Z,0.90
2023-04-30T15:06:44.200Z,0.93
2023-04-30T15:09:13.750Z,0.90
2023-04-30T15:11:41.122Z,0.90
2023-04-30T15:14:08.529Z,1.00
2023-04-30T15:16:36.344Z,1.10
2023-04-30T15:19:03.944Z,1.00
2023-04-30T15:21:31.514Z,0.83
2023-04-30T15:23:58.948Z,0.90
2023-04-30T15:26:28.950Z,1.03
2023-04-30T15:28:56.484Z,0.90
2023-04-30T15:31:24.230Z,1.00
2023-04-30T15:33:51.827Z,0.90
2023-04-30T15:36:19.383Z,0.93
2023-04-30T15:38:46.816Z,1.10
2023-04-30T15:41:14.182Z,1.00
2023-04-30T15:43:42.954Z,0.90
2023-04-30T15:46:10.471Z,0.80
2023-04-30T15:48:37.905Z,0.80
2023-04-30T15:51:05.387Z,0.77
2023-04-30T15:53:32.781Z,0.80
2023-04-30T15:56:00.269Z,0.80
2023-04-30T15:58:27.756Z,0.90
2023-04-30T16:00:56.719Z,1.00
2023-04-30T16:03:24.467Z,1.37
2023-04-30T16:05:52.069Z,1.00
2023-04-30T16:08:19.657Z,0.90
2023-04-30T16:10:47.275Z,1.10
2023-04-30T16:13:14.707Z,0.80
2023-04-30T16:15:42.090Z,0.93
2023-04-30T16:18:10.921Z,1.00
2023-04-30T16:20:38.660Z,1.00
2023-04-30T16:23:06.387Z,1.20
2023-04-30T16:25:33.996Z,1.00
2023-04-30T16:28:01.364Z,1.07
2023-04-30T16:30:29.152Z,0.90
2023-04-30T16:32:57.062Z,1.00
2023-04-30T16:35:25.957Z,1.10
2023-04-30T16:37:54.732Z,0.90
2023-04-30T16:40:22.427Z,1.10
2023-04-30T16:42:49.938Z,1.07
2023-04-30T16:45:17.849Z,1.30
2023-04-30T16:47:45.601Z,1.10
2023-04-30T16:50:13.158Z,1.10
2023-04-30T16:52:41.973Z,1.10
2023-04-30T16:55:10.314Z,1.60
2023-04-30T16:57:37.740Z,1.53
2023-04-30T17:00:06.455Z,1.20
2023-04-30T17:02:34.032Z,1.10
2023-04-30T17:05:01.681Z,1.10
2023-04-30T17:07:29.207Z,1.23
2023-04-30T17:09:58.097Z,1.20
2023-04-30T17:12:25.933Z,1.30
2023-04-30T17:14:53.441Z,1.20
2023-04-30T17:17:20.865Z,1.30
2023-04-30T17:19:48.670Z,1.40
2023-04-30T17:22:19.595Z,1.23
2023-04-30T17:24:47.160Z,1.20
2023-04-30T17:27:16.073Z,1.10
2023-04-30T17:29:43.480Z,1.20
2023-04-30T17:32:11.199Z,1.20
2023-04-30T17:34:38.740Z,1.10
2023-04-30T17:37:07.188Z,1.00
2023-04-30T17:39:34.662Z,1.07
2023-04-30T17:42:03.271Z,1.03
2023-04-30T17:44:33.645Z,1.10
2023-04-30T17:47:01.098Z,1.10
2023-04-30T17:49:28.600Z,1.10
2023-04-30T17:51:58.313Z,1.00
2023-04-30T17:54:25.904Z,1.10
2023-04-30T17:56:53.322Z,1.10
2023-04-30T17:59:20.797Z,1.00
2023-04-30T18:01:49.582Z,1.33
2023-04-30T18:04:17.974Z,1.80
2023-04-30T18:06:45.522Z,1.50
2023-04-30T18:09:12.926Z,2.00
2023-04-30T18:11:40.322Z,1.73
2023-04-30T18:14:07.695Z,1.60
2023-04-30T18:16:35.211Z,1.60
2023-04-30T18:19:04.161Z,1.97
2023-04-30T18:21:32.172Z,1.57
2023-04-30T18:23:59.587Z,1.60
2023-04-30T18:26:27.070Z,1.83
2023-04-30T18:28:55.572Z,1.57
2023-04-30T18:31:23.169Z,1.83
2023-04-30T18:33:50.657Z,1.77
2023-04-30T18:36:19.494Z,1.60
2023-04-30T18:38:46.948Z,1.70
2023-04-30T18:41:14.328Z,1.50
2023-04-30T18:43:42.804Z,1.80
2023-04-30T18:46:10.366Z,1.60
2023-04-30T18:48:38.346Z,1.50
2023-04-30T18:51:05.839Z,1.70
2023-04-30T18:53:35.856Z,1.80
2023-04-30T18:56:03.344Z,2.10
2023-04-30T18:58:30.781Z,2.20
2023-04-30T19:00:58.719Z,1.90
2023-04-30T19:03:26.351Z,2.20
2023-04-30T19:05:57.901Z,2.30
2023-04-30T19:08:25.591Z,2.30
2023-04-30T19:10:55.920Z,2.53
2023-04-30T19:13:23.595Z,2.40
2023-04-30T19:15:52.898Z,2.50
2023-04-30T19:18:21.747Z,2.30
2023-04-30T19:20:57.112Z,2.63
2023-04-30T19:23:24.782Z,2.60
2023-04-30T19:25:52.402Z,2.40
2023-04-30T19:28:21.192Z,3.10
2023-04-30T19:30:51.520Z,2.60
2023-04-30T19:33:19.053Z,2.93
2023-04-30T19:35:48.666Z,3.07
2023-04-30T19:38:16.142Z,2.80
2023-04-30T19:40:46.692Z,2.80
2023-04-30T19:43:14.136Z,3.13
2023-04-30T19:45:47.624Z,2.60
2023-04-30T19:48:15.755Z,3.00
2023-04-30T19:50:45.248Z,3.07
2023-04-30T19:53:12.771Z,3.40
2023-04-30T19:55:40.670Z,3.30
2023-04-30T19:58:08.156Z,3.30
2023-04-30T20:00:37.125Z,3.47
2023-04-30T20:03:06.668Z,3.13
2023-04-30T20:05:34.951Z,3.47
2023-04-30T20:08:03.331Z,3.60
2023-04-30T20:10:30.914Z,3.53
2023-04-30T20:12:58.407Z,3.50
2023-04-30T20:15:26.009Z,3.87
2023-04-30T20:17:53.921Z,3.20
2023-04-30T20:20:24.595Z,3.50
2023-04-30T20:22:52.918Z,3.20
2023-04-30T20:25:20.925Z,3.47
2023-04-30T20:27:48.427Z,4.33
2023-04-30T20:30:16.343Z,4.77
2023-04-30T20:32:44.265Z,4.50
2023-04-30T20:35:11.747Z,3.70
2023-04-30T20:37:40.621Z,3.80
2023-04-30T20:40:08.769Z,3.80
2023-04-30T20:42:36.257Z,3.60
2023-04-30T20:45:05.360Z,4.30
2023-04-30T20:47:33.356Z,3.37
2023-04-30T20:50:01.002Z,3.80
2023-04-30T20:52:28.438Z,3.50
2023-04-30T20:54:59.348Z,3.20
2023-04-30T20:57:26.866Z,3.23
2023-04-30T20:59:54.601Z,3.60
2023-04-30T21:02:22.316Z,3.50
2023-04-30T21:04:49.753Z,3.47
2023-04-30T21:07:17.249Z,3.70
2023-04-30T21:09:45.020Z,4.10
2023-04-30T21:12:13.921Z,3.57
2023-04-30T21:14:42.196Z,3.47
2023-04-30T21:17:09.706Z,3.53
2023-04-30T21:19:37.367Z,3.40
2023-04-30T21:22:05.133Z,3.80
2023-04-30T21:24:32.656Z,3.70
2023-04-30T21:27:00.211Z,3.60
2023-04-30T21:29:29.382Z,3.57
2023-04-30T21:31:56.923Z,3.90
2023-04-30T21:34:24.814Z,3.80
2023-04-30T21:36:52.478Z,3.60
2023-04-30T21:39:20.500Z,3.47
2023-04-30T21:41:47.896Z,3.40
2023-04-30T21:44:15.857Z,3.40
2023-04-30T21:46:44.748Z,3.13
2023-04-30T21:49:12.731Z,3.13
2023-04-30T21:51:40.173Z,3.40
2023-04-30T21:54:07.507Z,3.90
2023-04-30T21:56:34.938Z,3.30
2023-04-30T21:59:02.311Z,2.80
2023-04-30T22:01:30.236Z,3.00
2023-04-30T22:03:59.782Z,3.00
2023-04-30T22:06:28.478Z,3.27
2023-04-30T22:08:56.528Z,2.90
2023-04-30T22:11:25.193Z,2.90
2023-04-30T22:13:52.657Z,3.10
2023-04-30T22:16:20.131Z,2.80
2023-04-30T22:18:47.632Z,3.20
2023-04-30T22:21:16.908Z,3.53
2023-04-30T22:23:44.698Z,4.13
2023-04-30T22:26:12.351Z,3.33
2023-04-30T22:28:39.886Z,3.47
2023-04-30T22:31:07.530Z,2.90
2023-04-30T22:33:36.407Z,3.27
2023-04-30T22:36:04.652Z,3.10
2023-04-30T22:38:33.403Z,2.50
2023-04-30T22:41:01.179Z,3.00
2023-04-30T22:43:30.314Z,3.13
2023-04-30T22:45:58.365Z,3.13
2023-04-30T22:48:26.840Z,2.63
2023-04-30T22:50:55.265Z,3.03
2023-04-30T22:53:23.014Z,2.90
2023-04-30T22:55:52.884Z,2.60
2023-04-30T22:58:20.297Z,3.03
2023-04-30T23:00:48.050Z,2.50
2023-04-30T23:03:15.641Z,2.30
2023-04-30T23:05:43.080Z,2.33
2023-04-30T23:08:10.720Z,2.10
2023-04-30T23:10:38.592Z,2.67
2023-04-30T23:13:07.419Z,2.20
2023-04-30T23:15:34.899Z,2.43
2023-04-30T23:18:02.445Z,2.33
2023-04-30T23:20:30.024Z,2.17
2023-04-30T23:22:57.467Z,2.20
2023-04-30T23:25:24.958Z,2.30
2023-04-30T23:27:52.597Z,2.37
2023-04-30T23:30:22.025Z,2.50
2023-04-30T23:32:49.535Z,2.00
2023-04-30T23:35:16.960Z,2.10
2023-04-30T23:37:44.475Z,2.27
2023-04-30T23:40:12.162Z,2.40
2023-04-30T23:42:39.700Z,2.20
2023-04-30T23:45:07.651Z,2.20
2023-04-30T23:47:37.072Z,2.30
2023-04-30T23:50:04.859Z,2.43
2023-04-30T23:52:33.151Z,2.33
2023-04-30T23:55:00.673Z,2.07
2023-04-30T23:57:28.461Z,2.17
2023-04-30T23:59:56.430Z,2.20
